createdAt,value
2022-12-11T00:01:28.779Z,-0.16
2022-12-11T00:04:02.158Z,-0.13
2022-12-11T00:06:34.428Z,-0.15
2022-12-11T00:09:06.308Z,-0.17
2022-12-11T00:11:37.086Z,-0.20
2022-12-11T00:14:06.048Z,-0.14
2022-12-11T00:16:35.977Z,-0.12
2022-12-11T00:19:11.787Z,-0.09
2022-12-11T00:21:44.215Z,-0.06
2022-12-11T00:24:19.057Z,-0.06
2022-12-11T00:26:48.019Z,-0.06
2022-12-11T00:29:24.917Z,-0.02
2022-12-11T00:31:54.011Z,0.03
2022-12-11T00:34:32.959Z,0.07
2022-12-11T00:37:10.287Z,0.09
2022-12-11T00:39:40.313Z,0.11
2022-12-11T00:42:10.283Z,0.13
2022-12-11T00:44:38.967Z,0.18
2022-12-11T00:47:07.667Z,0.21
2022-12-11T00:49:36.499Z,0.18
2022-12-11T00:52:05.178Z,0.08
2022-12-11T00:54:36.155Z,0.04
2022-12-11T00:57:04.947Z,-0.02
2022-12-11T00:59:33.797Z,-0.03
2022-12-11T01:02:03.409Z,-0.08
2022-12-11T01:04:31.946Z,-0.09
2022-12-11T01:07:00.715Z,-0.11
2022-12-11T01:09:46.418Z,-0.12
2022-12-11T01:12:16.489Z,-0.13
2022-12-11T01:14:44.970Z,-0.13
2022-12-11T01:17:29.568Z,-0.13
2022-12-11T01:19:58.336Z,-0.14
2022-12-11T01:22:27.081Z,-0.14
2022-12-11T01:25:14.328Z,-0.14
2022-12-11T01:27:44.534Z,-0.13
2022-12-11T01:30:14.865Z,-0.12
2022-12-11T01:32:43.356Z,-0.15
2022-12-11T01:35:14.608Z,-0.15
2022-12-11T01:37:43.807Z,-0.14
2022-12-11T01:40:16.258Z,-0.13
2022-12-11T01:42:47.379Z,-0.13
2022-12-11T01:45:32.256Z,-0.14
2022-12-11T01:51:31.136Z,-0.15
2022-12-11T01:54:03.547Z,-0.13
2022-12-11T01:56:36.394Z,-0.15
2022-12-11T01:59:09.809Z,-0.19
2022-12-11T02:01:42.631Z,-0.26
2022-12-11T02:04:12.166Z,-0.30
2022-12-11T02:06:43.697Z,-0.34
2022-12-11T02:09:15.387Z,-0.38
2022-12-11T02:11:54.818Z,-0.40
2022-12-11T02:14:35.366Z,-0.41
2022-12-11T02:17:12.737Z,-0.40
2022-12-11T02:19:53.938Z,-0.41
2022-12-11T02:22:39.908Z,-0.40
2022-12-11T02:25:19.929Z,-0.35
2022-12-11T02:27:57.150Z,-0.33
2022-12-11T02:30:27.597Z,-0.31
2022-12-11T02:32:58.610Z,-0.27
2022-12-11T02:35:32.918Z,-0.24
2022-12-11T02:38:09.841Z,-0.22
2022-12-11T02:40:43.277Z,-0.22
2022-12-11T02:43:16.164Z,-0.24
2022-12-11T02:45:48.595Z,-0.23
2022-12-11T02:48:19.587Z,-0.24
2022-12-11T02:50:50.677Z,-0.24
2022-12-11T02:53:23.177Z,-0.25
2022-12-11T02:55:58.809Z,-0.25
2022-12-11T02:58:31.621Z,-0.29
2022-12-11T03:01:02.151Z,-0.31
2022-12-11T03:03:31.763Z,-0.32
2022-12-11T03:06:00.334Z,-0.29
2022-12-11T03:08:28.920Z,-0.31
2022-12-11T03:10:57.566Z,-0.34
2022-12-11T03:13:26.266Z,-0.36
2022-12-11T03:16:08.102Z,-0.41
2022-12-11T03:18:43.960Z,-0.42
2022-12-11T03:21:20.137Z,-0.41
2022-12-11T03:23:53.963Z,-0.38
2022-12-11T03:26:24.636Z,-0.36
2022-12-11T03:28:59.969Z,-0.35
2022-12-11T03:31:37.108Z,-0.34
2022-12-11T03:34:17.797Z,-0.38
2022-12-11T03:36:51.727Z,-0.41
2022-12-11T03:39:28.300Z,-0.41
2022-12-11T03:41:58.732Z,-0.40
2022-12-11T03:44:30.157Z,-0.40
2022-12-11T03:47:03.548Z,-0.40
2022-12-11T03:49:37.216Z,-0.40
2022-12-11T03:52:07.878Z,-0.39
2022-12-11T03:54:37.467Z,-0.37
2022-12-11T03:57:07.814Z,-0.36
2022-12-11T03:59:36.547Z,-0.32
2022-12-11T04:02:11.392Z,-0.32
2022-12-11T04:04:41.620Z,-0.33
2022-12-11T04:07:10.959Z,-0.34
2022-12-11T04:09:39.547Z,-0.35
2022-12-11T04:12:09.317Z,-0.37
2022-12-11T04:14:55.247Z,-0.45
2022-12-11T04:17:43.037Z,-0.55
2022-12-11T04:20:30.797Z,-0.62
2022-12-11T04:23:16.781Z,-0.63
2022-12-11T04:25:45.384Z,-0.64
2022-12-11T04:28:14.147Z,-0.62
2022-12-11T04:30:50.315Z,-0.61
2022-12-11T04:33:20.591Z,-0.64
2022-12-11T04:35:49.516Z,-0.60
2022-12-11T04:38:18.544Z,-0.56
2022-12-11T04:40:46.928Z,-0.56
2022-12-11T04:43:15.569Z,-0.55
2022-12-11T04:45:44.214Z,-0.55
2022-12-11T04:48:14.077Z,-0.58
2022-12-11T04:50:44.027Z,-0.59
2022-12-11T04:53:12.607Z,-0.63
2022-12-11T04:55:41.262Z,-0.68
2022-12-11T04:58:09.788Z,-0.74
2022-12-11T05:00:38.368Z,-0.79
2022-12-11T05:03:06.824Z,-0.83
2022-12-11T05:05:35.688Z,-0.85
2022-12-11T05:08:06.557Z,-0.84
2022-12-11T05:10:35.206Z,-0.85
2022-12-11T05:13:03.808Z,-0.88
2022-12-11T05:15:32.468Z,-0.93
2022-12-11T05:18:01.345Z,-0.96
2022-12-11T05:20:29.846Z,-0.99
2022-12-11T05:22:58.388Z,-0.99
2022-12-11T05:25:28.457Z,-0.98
2022-12-11T05:27:57.275Z,-0.98
2022-12-11T05:30:25.976Z,-0.99
2022-12-11T05:32:54.599Z,-0.99
2022-12-11T05:35:23.626Z,-0.99
2022-12-11T05:37:52.401Z,-0.99
2022-12-11T05:40:20.938Z,-0.99
2022-12-11T05:42:52.066Z,-1.01
2022-12-11T05:45:20.841Z,-1.00
2022-12-11T05:47:49.578Z,-0.96
2022-12-11T05:50:18.337Z,-0.96
2022-12-11T05:52:46.856Z,-0.96
2022-12-11T05:55:15.886Z,-0.93
2022-12-11T05:57:44.871Z,-0.92
2022-12-11T06:00:15.417Z,-0.95
2022-12-11T06:02:44.152Z,-0.93
2022-12-11T06:05:13.366Z,-0.92
2022-12-11T06:07:42.137Z,-0.94
2022-12-11T06:10:12.167Z,-0.95
2022-12-11T06:12:41.257Z,-0.96
2022-12-11T06:15:10.939Z,-0.96
2022-12-11T06:17:41.965Z,-0.88
2022-12-11T06:20:11.267Z,-0.81
2022-12-11T06:22:39.999Z,-0.84
2022-12-11T06:25:09.907Z,-0.85
2022-12-11T06:27:38.944Z,-0.84
2022-12-11T06:30:09.107Z,-0.84
2022-12-11T06:32:37.697Z,-0.88
2022-12-11T06:35:09.246Z,-0.87
2022-12-11T06:37:40.576Z,-0.85
2022-12-11T06:40:12.016Z,-0.85
2022-12-11T06:42:40.585Z,-0.86
2022-12-11T06:45:10.771Z,-0.90
2022-12-11T06:47:39.817Z,-0.92
2022-12-11T06:50:11.835Z,-0.96
2022-12-11T06:52:40.567Z,-0.99
2022-12-11T06:55:10.513Z,-1.02
2022-12-11T06:57:39.418Z,-1.06
2022-12-11T07:00:09.589Z,-1.10
2022-12-11T07:02:38.207Z,-1.11
2022-12-11T07:05:08.006Z,-1.14
2022-12-11T07:07:38.368Z,-1.15
2022-12-11T07:10:08.705Z,-1.15
2022-12-11T07:12:38.307Z,-1.17
2022-12-11T07:15:07.706Z,-1.16
2022-12-11T07:17:37.406Z,-1.19
2022-12-11T07:20:07.246Z,-1.18
2022-12-11T07:22:35.771Z,-1.20
2022-12-11T07:25:06.260Z,-1.21
2022-12-11T07:27:34.949Z,-1.21
2022-12-11T07:30:03.737Z,-1.22
2022-12-11T07:32:32.464Z,-1.20
2022-12-11T07:35:01.193Z,-1.21
2022-12-11T07:37:29.798Z,-1.19
2022-12-11T07:39:58.329Z,-1.19
2022-12-11T07:42:29.870Z,-1.18
2022-12-11T07:44:58.399Z,-1.19
2022-12-11T07:47:26.985Z,-1.21
2022-12-11T07:49:55.644Z,-1.17
2022-12-11T07:52:26.701Z,-1.16
2022-12-11T07:55:00.007Z,-1.11
2022-12-11T07:57:53.499Z,-1.06
2022-12-11T08:00:32.422Z,-1.06
2022-12-11T08:03:05.808Z,-1.09
2022-12-11T08:05:41.678Z,-1.11
2022-12-11T08:08:16.885Z,-1.10
2022-12-11T08:10:47.941Z,-1.12
2022-12-11T08:13:32.299Z,-1.12
2022-12-11T08:19:34.670Z,-1.10
2022-12-11T08:22:22.780Z,-1.11
2022-12-11T08:25:47.082Z,-1.10
2022-12-11T08:29:00.837Z,-1.11
2022-12-11T08:31:37.067Z,-1.10
2022-12-11T08:34:16.200Z,-1.09
2022-12-11T08:36:47.365Z,-1.10
2022-12-11T08:39:31.522Z,-1.08
2022-12-11T08:42:15.968Z,-1.10
2022-12-11T08:45:06.545Z,-1.10
2022-12-11T08:47:56.548Z,-1.11
2022-12-11T08:50:32.618Z,-1.08
2022-12-11T08:53:11.598Z,-1.08
2022-12-11T08:55:56.429Z,-1.13
2022-12-11T08:58:30.098Z,-1.11
2022-12-11T09:01:12.816Z,-1.08
2022-12-11T09:04:16.275Z,-1.08
2022-12-11T09:10:27.789Z,-1.03
2022-12-11T09:12:58.501Z,-1.02
2022-12-11T09:15:45.180Z,-1.02
2022-12-11T09:18:16.701Z,-1.01
2022-12-11T09:20:49.216Z,-1.00
2022-12-11T09:23:21.017Z,-1.01
2022-12-11T09:26:11.516Z,-0.98
2022-12-11T09:28:46.606Z,-0.92
2022-12-11T09:31:19.954Z,-0.87
2022-12-11T09:33:52.133Z,-0.80
2022-12-11T09:36:22.426Z,-0.75
2022-12-11T09:38:51.289Z,-0.73
2022-12-11T09:41:41.444Z,-0.74
2022-12-11T09:44:41.437Z,-0.68
2022-12-11T09:47:30.266Z,-0.68
2022-12-11T09:50:06.588Z,-0.65
2022-12-11T09:52:42.341Z,-0.62
2022-12-11T09:55:18.169Z,-0.57
2022-12-11T09:57:56.987Z,-0.52
2022-12-11T10:00:32.359Z,-0.47
2022-12-11T10:03:45.022Z,-0.41
2022-12-11T10:06:23.956Z,-0.39
2022-12-11T10:09:05.137Z,-0.34
2022-12-11T10:11:56.464Z,-0.28
2022-12-11T10:14:41.695Z,-0.28
2022-12-11T10:17:17.714Z,-0.23
2022-12-11T10:19:49.965Z,-0.04
2022-12-11T10:22:24.397Z,0.09
2022-12-11T10:25:14.496Z,0.23
2022-12-11T10:27:47.302Z,0.32
2022-12-11T10:30:23.930Z,0.37
2022-12-11T10:32:58.647Z,0.46
2022-12-11T10:35:36.667Z,0.45
2022-12-11T10:38:16.250Z,0.52
2022-12-11T10:40:56.924Z,0.55
2022-12-11T10:43:37.646Z,0.62
2022-12-11T10:46:18.047Z,0.71
2022-12-11T10:48:54.231Z,0.85
2022-12-11T10:51:36.294Z,0.96
2022-12-11T10:54:08.526Z,1.06
2022-12-11T10:56:40.326Z,1.12
2022-12-11T10:59:08.812Z,1.22
2022-12-11T11:01:38.236Z,1.26
2022-12-11T11:04:17.252Z,1.27
2022-12-11T11:06:52.134Z,1.37
2022-12-11T11:09:37.652Z,1.52
2022-12-11T11:12:20.815Z,1.52
2022-12-11T11:15:27.164Z,1.63
2022-12-11T11:18:00.073Z,1.62
2022-12-11T11:20:31.793Z,1.70
2022-12-11T11:23:17.479Z,1.83
2022-12-11T11:25:54.354Z,1.93
2022-12-11T11:28:29.686Z,2.03
2022-12-11T11:31:05.831Z,1.84
2022-12-11T11:33:54.917Z,1.93
2022-12-11T11:36:26.874Z,2.06
2022-12-11T11:39:29.563Z,2.15
2022-12-11T11:42:06.325Z,2.17
2022-12-11T11:44:42.922Z,2.23
2022-12-11T11:47:32.168Z,2.25
2022-12-11T11:50:26.503Z,2.27
2022-12-11T11:53:13.662Z,2.34
2022-12-11T11:55:59.117Z,2.50
2022-12-11T11:58:44.388Z,2.53
2022-12-11T12:02:07.752Z,2.64
2022-12-11T12:05:14.171Z,2.84
2022-12-11T12:08:07.712Z,3.06
2022-12-11T12:10:50.126Z,3.29
2022-12-11T12:13:49.161Z,3.13
2022-12-11T12:16:52.278Z,3.17
2022-12-11T12:19:30.236Z,3.02
2022-12-11T12:22:14.592Z,3.02
2022-12-11T12:24:56.361Z,3.01
2022-12-11T12:27:52.530Z,2.96
2022-12-11T12:30:23.832Z,2.94
2022-12-11T12:33:13.054Z,2.90
2022-12-11T12:35:57.469Z,2.75
2022-12-11T12:38:41.792Z,2.71
2022-12-11T12:41:22.849Z,2.56
2022-12-11T12:44:26.385Z,2.70
2022-12-11T12:47:07.289Z,2.79
2022-12-11T12:49:42.778Z,2.83
2022-12-11T12:52:18.124Z,2.96
2022-12-11T12:55:17.127Z,3.22
2022-12-11T12:57:51.358Z,3.43
2022-12-11T13:00:36.454Z,3.12
2022-12-11T13:03:15.662Z,2.90
2022-12-11T13:06:00.145Z,2.89
2022-12-11T13:08:36.384Z,2.52
2022-12-11T13:11:09.338Z,2.31
2022-12-11T13:13:44.514Z,2.21
2022-12-11T13:16:36.091Z,2.01
2022-12-11T13:19:19.756Z,1.99
2022-12-11T13:21:58.557Z,1.97
2022-12-11T13:24:33.953Z,1.84
2022-12-11T13:27:12.754Z,1.46
2022-12-11T13:29:44.468Z,1.22
2022-12-11T13:32:33.520Z,1.14
2022-12-11T13:35:21.669Z,1.33
2022-12-11T13:38:02.349Z,1.42
2022-12-11T13:40:44.595Z,1.47
2022-12-11T13:43:22.264Z,1.42
2022-12-11T13:45:57.358Z,1.48
2022-12-11T13:48:37.928Z,1.50
2022-12-11T13:51:08.248Z,1.54
2022-12-11T13:53:37.986Z,1.57
2022-12-11T13:56:09.376Z,1.68
2022-12-11T13:58:40.771Z,1.69
2022-12-11T14:01:23.788Z,1.76
2022-12-11T14:03:57.075Z,1.88
2022-12-11T14:06:37.437Z,1.88
2022-12-11T14:09:09.803Z,1.90
2022-12-11T14:11:43.735Z,1.68
2022-12-11T14:14:22.030Z,1.55
2022-12-11T14:16:54.681Z,1.29
2022-12-11T14:19:48.325Z,1.01
2022-12-11T14:22:23.889Z,0.82
2022-12-11T14:24:55.730Z,0.64
2022-12-11T14:27:27.985Z,0.55
2022-12-11T14:29:58.220Z,0.45
2022-12-11T14:32:40.538Z,0.44
2022-12-11T14:35:25.823Z,0.36
2022-12-11T14:38:15.791Z,0.37
2022-12-11T14:41:02.187Z,0.32
2022-12-11T14:43:37.352Z,0.35
2022-12-11T14:46:17.140Z,0.34
2022-12-11T14:49:01.041Z,0.36
2022-12-11T14:51:31.412Z,0.36
2022-12-11T14:54:03.187Z,0.34
2022-12-11T14:56:33.201Z,0.24
2022-12-11T14:59:04.424Z,0.19
2022-12-11T15:01:35.348Z,0.16
2022-12-11T15:04:21.950Z,0.13
2022-12-11T15:06:57.080Z,0.13
2022-12-11T15:09:30.043Z,0.09
2022-12-11T15:12:14.223Z,0.06
2022-12-11T15:14:55.518Z,0.11
2022-12-11T15:17:26.688Z,0.10
2022-12-11T15:20:03.676Z,0.07
2022-12-11T15:22:34.328Z,0.13
2022-12-11T15:25:03.871Z,0.17
2022-12-11T15:27:35.989Z,0.20
2022-12-11T15:30:16.493Z,0.24
2022-12-11T15:32:45.084Z,0.25
2022-12-11T15:35:26.487Z,0.25
2022-12-11T15:37:56.636Z,0.31
2022-12-11T15:40:26.610Z,0.34
2022-12-11T15:42:57.206Z,0.34
2022-12-11T15:45:29.404Z,0.33
2022-12-11T15:47:59.840Z,0.32
2022-12-11T15:50:31.712Z,0.30
2022-12-11T15:53:00.358Z,0.30
2022-12-11T15:55:35.319Z,0.29
2022-12-11T15:58:07.331Z,0.28
2022-12-11T16:00:37.337Z,0.25
2022-12-11T16:03:07.949Z,0.22
2022-12-11T16:05:40.077Z,0.22
2022-12-11T16:08:15.509Z,0.18
2022-12-11T16:10:48.677Z,0.19
2022-12-11T16:13:18.658Z,0.17
2022-12-11T16:15:49.660Z,0.20
2022-12-11T16:18:32.050Z,0.17
2022-12-11T16:21:07.489Z,0.15
2022-12-11T16:23:45.076Z,0.16
2022-12-11T16:26:16.247Z,0.17
2022-12-11T16:29:11.389Z,0.18
2022-12-11T16:31:53.567Z,0.22
2022-12-11T16:34:27.227Z,0.22
2022-12-11T16:37:01.658Z,0.23
2022-12-11T16:39:33.193Z,0.24
2022-12-11T16:42:02.060Z,0.29
2022-12-11T16:48:19.424Z,0.17
2022-12-11T16:50:56.574Z,0.16
2022-12-11T16:53:28.174Z,0.14
2022-12-11T16:56:08.179Z,0.16
2022-12-11T16:58:41.452Z,0.12
2022-12-11T17:01:13.801Z,0.16
2022-12-11T17:03:47.845Z,0.15
2022-12-11T17:06:19.272Z,0.15
2022-12-11T17:09:15.355Z,0.14
2022-12-11T17:11:46.324Z,0.13
2022-12-11T17:14:20.869Z,0.15
2022-12-11T17:17:01.237Z,0.16
2022-12-11T17:20:07.164Z,0.16
2022-12-11T17:22:43.346Z,0.14
2022-12-11T17:25:22.744Z,0.16
2022-12-11T17:27:57.527Z,0.14
2022-12-11T17:30:27.325Z,0.12
2022-12-11T17:33:06.264Z,0.13
2022-12-11T17:35:37.204Z,0.12
2022-12-11T17:38:06.914Z,0.15
2022-12-11T17:40:50.474Z,0.16
2022-12-11T17:43:20.290Z,0.22
2022-12-11T17:45:55.795Z,0.14
2022-12-11T17:48:38.817Z,0.11
2022-12-11T17:51:25.300Z,0.13
2022-12-11T17:53:55.639Z,0.11
2022-12-11T17:56:26.665Z,0.12
2022-12-11T17:58:55.904Z,0.16
2022-12-11T18:01:25.770Z,0.16
2022-12-11T18:03:54.783Z,0.13
2022-12-11T18:06:32.551Z,0.15
2022-12-11T18:09:01.581Z,0.12
2022-12-11T18:11:36.154Z,0.11
2022-12-11T18:14:06.285Z,0.06
2022-12-11T18:16:38.350Z,0.11
2022-12-11T18:19:32.231Z,0.06
2022-12-11T18:22:01.051Z,0.07
2022-12-11T18:27:21.268Z,0.08
2022-12-11T18:29:57.180Z,0.08
2022-12-11T18:32:25.850Z,0.05
2022-12-11T18:35:09.329Z,0.04
2022-12-11T18:37:39.695Z,0.09
2022-12-11T18:40:16.659Z,0.04
2022-12-11T18:42:51.127Z,0.01
2022-12-11T18:45:22.967Z,0.01
2022-12-11T18:47:53.286Z,-0.03
2022-12-11T18:50:22.959Z,-0.03
2022-12-11T18:52:55.489Z,-0.03
2022-12-11T18:55:27.196Z,-0.02
2022-12-11T18:58:02.347Z,0.01
2022-12-11T19:00:31.265Z,-0.02
2022-12-11T19:03:01.044Z,0.01
2022-12-11T19:05:31.037Z,-0.01
2022-12-11T19:08:02.106Z,-0.01
2022-12-11T19:10:35.019Z,0.02
2022-12-11T19:13:05.506Z,-0.02
2022-12-11T19:15:41.908Z,-0.03
2022-12-11T19:18:15.315Z,-0.03
2022-12-11T19:20:57.656Z,-0.05
2022-12-11T19:23:33.438Z,-0.04
2022-12-11T19:26:12.421Z,-0.03
2022-12-11T19:29:00.729Z,-0.06
2022-12-11T19:31:43.865Z,-0.05
2022-12-11T19:34:16.579Z,-0.09
2022-12-11T19:36:48.740Z,-0.08
2022-12-11T19:39:29.426Z,-0.07
2022-12-11T19:42:15.145Z,-0.03
2022-12-11T19:44:47.947Z,-0.07
2022-12-11T19:47:23.168Z,-0.08
2022-12-11T19:50:11.268Z,-0.06
2022-12-11T19:52:52.946Z,-0.06
2022-12-11T19:55:47.858Z,-0.10
2022-12-11T19:58:20.608Z,-0.08
2022-12-11T20:00:54.874Z,-0.08
2022-12-11T20:03:39.907Z,-0.11
2022-12-11T20:06:16.376Z,-0.09
2022-12-11T20:08:47.329Z,-0.09
2022-12-11T20:11:21.128Z,-0.12
2022-12-11T20:13:56.885Z,-0.11
2022-12-11T20:17:09.253Z,-0.10
2022-12-11T20:19:40.199Z,-0.13
2022-12-11T20:22:24.367Z,-0.13
2022-12-11T20:24:55.470Z,-0.10
2022-12-11T20:27:31.095Z,-0.10
2022-12-11T20:30:20.089Z,-0.16
2022-12-11T20:32:59.789Z,-0.13
2022-12-11T20:35:33.697Z,-0.15
2022-12-11T20:38:25.097Z,-0.16
2022-12-11T20:40:56.029Z,-0.12
2022-12-11T20:43:24.750Z,-0.14
2022-12-11T20:46:10.048Z,-0.18
2022-12-11T20:48:44.089Z,-0.17
2022-12-11T20:51:20.941Z,-0.17
2022-12-11T20:53:58.126Z,-0.21
2022-12-11T20:56:29.022Z,-0.19
2022-12-11T20:58:59.354Z,-0.21
2022-12-11T21:01:32.870Z,-0.22
2022-12-11T21:04:06.999Z,-0.23
2022-12-11T21:06:42.542Z,-0.24
2022-12-11T21:09:14.622Z,-0.26
2022-12-11T21:11:45.214Z,-0.24
2022-12-11T21:14:15.991Z,-0.22
2022-12-11T21:16:51.667Z,-0.23
2022-12-11T21:19:23.875Z,-0.29
2022-12-11T21:21:53.900Z,-0.25
2022-12-11T21:24:27.670Z,-0.26
2022-12-11T21:26:59.340Z,-0.32
2022-12-11T21:29:36.435Z,-0.31
2022-12-11T21:32:05.997Z,-0.32
2022-12-11T21:34:38.085Z,-0.29
2022-12-11T21:37:17.783Z,-0.29
2022-12-11T21:39:47.240Z,-0.25
2022-12-11T21:42:16.626Z,-0.30
2022-12-11T21:47:34.819Z,-0.36
2022-12-11T21:50:06.012Z,-0.35
2022-12-11T21:52:49.089Z,-0.36
2022-12-11T21:55:23.794Z,-0.38
2022-12-11T21:57:52.642Z,-0.47
2022-12-11T22:00:22.786Z,-0.53
2022-12-11T22:02:52.327Z,-0.56
2022-12-11T22:05:32.599Z,-0.56
2022-12-11T22:08:02.613Z,-0.49
2022-12-11T22:10:32.328Z,-0.49
2022-12-11T22:13:01.219Z,-0.45
2022-12-11T22:15:30.046Z,-0.41
2022-12-11T22:17:58.954Z,-0.40
2022-12-11T22:20:29.726Z,-0.43
2022-12-11T22:23:00.203Z,-0.45
2022-12-11T22:25:32.576Z,-0.47
2022-12-11T22:28:01.398Z,-0.48
2022-12-11T22:30:32.272Z,-0.49
2022-12-11T22:33:11.940Z,-0.49
2022-12-11T22:35:56.421Z,-0.48
2022-12-11T22:38:33.986Z,-0.45
2022-12-11T22:41:05.217Z,-0.44
2022-12-11T22:43:40.087Z,-0.45
2022-12-11T22:46:10.208Z,-0.48
2022-12-11T22:48:41.147Z,-0.49
2022-12-11T22:51:10.115Z,-0.56
2022-12-11T22:53:41.607Z,-0.58
2022-12-11T22:56:12.595Z,-0.61
2022-12-11T22:58:43.998Z,-0.68
2022-12-11T23:01:17.885Z,-0.68
2022-12-11T23:03:47.200Z,-0.67
2022-12-11T23:06:23.949Z,-0.70
2022-12-11T23:09:02.414Z,-0.68
2022-12-11T23:11:36.571Z,-0.67
2022-12-11T23:14:10.680Z,-0.68
2022-12-11T23:16:43.444Z,-0.67
2022-12-11T23:19:12.397Z,-0.70
2022-12-11T23:21:43.719Z,-0.70
2022-12-11T23:24:14.226Z,-0.68
2022-12-11T23:26:44.417Z,-0.66
2022-12-11T23:29:14.238Z,-0.63
2022-12-11T23:31:51.183Z,-0.63
2022-12-11T23:34:27.056Z,-0.66
2022-12-11T23:37:05.948Z,-0.63
2022-12-11T23:39:37.667Z,-0.61
2022-12-11T23:42:06.678Z,-0.62
2022-12-11T23:44:35.335Z,-0.59
2022-12-11T23:47:04.016Z,-0.59
2022-12-11T23:49:34.981Z,-0.55
2022-12-11T23:52:03.895Z,-0.57
2022-12-11T23:54:34.507Z,-0.55
2022-12-11T23:57:06.505Z,-0.52
2022-12-11T23:59:35.506Z,-0.49
